createdAt,value
2022-11-24T00:01:22.024Z,99130.00
2022-11-24T00:03:54.959Z,99129.00
2022-11-24T00:06:23.507Z,99128.00
2022-11-24T00:08:51.643Z,99123.00
2022-11-24T00:11:22.189Z,99124.00
2022-11-24T00:13:50.788Z,99124.00
2022-11-24T00:16:20.667Z,99124.00
2022-11-24T00:18:50.722Z,99120.00
2022-11-24T00:21:19.629Z,99119.00
2022-11-24T00:23:48.183Z,99132.00
2022-11-24T00:26:23.542Z,99127.00
2022-11-24T00:28:52.782Z,99130.00
2022-11-24T00:31:23.790Z,99132.00
2022-11-24T00:33:53.648Z,99139.00
2022-11-24T00:36:22.992Z,99138.00
2022-11-24T00:38:55.860Z,99134.00
2022-11-24T00:41:24.879Z,99144.00
2022-11-24T00:43:53.211Z,99150.00
2022-11-24T00:46:23.554Z,99147.00
2022-11-24T00:48:51.705Z,99160.00
2022-11-24T00:51:21.419Z,99159.00
2022-11-24T00:53:49.686Z,99163.00
2022-11-24T00:56:17.568Z,99163.00
2022-11-24T00:58:45.567Z,99173.00
2022-11-24T01:01:16.060Z,99170.00
2022-11-24T01:03:44.511Z,99165.00
2022-11-24T01:06:21.120Z,99176.00
2022-11-24T01:08:49.325Z,99174.00
2022-11-24T01:11:21.817Z,99173.00
2022-11-24T01:13:55.307Z,99178.00
2022-11-24T01:16:35.039Z,99178.00
2022-11-24T01:19:04.195Z,99172.00
2022-11-24T01:21:32.093Z,99186.00
2022-11-24T01:24:00.478Z,99188.00
2022-11-24T01:26:28.593Z,99180.00
2022-11-24T01:28:57.831Z,99191.00
2022-11-24T01:31:26.952Z,99190.00
2022-11-24T01:33:55.271Z,99194.00
2022-11-24T01:36:23.385Z,99184.00
2022-11-24T01:38:51.737Z,99191.00
2022-11-24T01:41:23.910Z,99193.00
2022-11-24T01:43:53.203Z,99202.00
2022-11-24T01:46:30.006Z,99209.00
2022-11-24T01:49:14.075Z,99206.00
2022-11-24T01:51:58.518Z,99205.00
2022-11-24T01:54:30.451Z,99212.00
2022-11-24T01:57:23.919Z,99210.00
2022-11-24T01:59:55.315Z,99215.00
2022-11-24T02:02:27.881Z,99207.00
2022-11-24T02:05:01.020Z,99217.00
2022-11-24T02:07:29.221Z,99216.00
2022-11-24T02:10:00.210Z,99217.00
2022-11-24T02:12:28.654Z,99220.00
2022-11-24T02:14:57.240Z,99212.00
2022-11-24T02:17:25.348Z,99214.00
2022-11-24T02:20:01.361Z,99216.00
2022-11-24T02:22:44.789Z,99216.00
2022-11-24T02:25:51.284Z,99224.00
2022-11-24T02:28:21.741Z,99216.00
2022-11-24T02:30:50.446Z,99225.00
2022-11-24T02:33:18.654Z,99227.00
2022-11-24T02:35:46.548Z,99226.00
2022-11-24T02:38:14.710Z,99226.00
2022-11-24T02:40:48.397Z,99233.00
2022-11-24T02:43:20.280Z,99229.00
2022-11-24T02:45:48.395Z,99234.00
2022-11-24T02:48:17.316Z,99238.00
2022-11-24T02:50:45.288Z,99236.00
2022-11-24T02:53:13.395Z,99233.00
2022-11-24T02:55:41.430Z,99232.00
2022-11-24T02:58:09.524Z,99244.00
2022-11-24T03:00:37.470Z,99242.00
2022-11-24T03:03:05.558Z,99244.00
2022-11-24T03:05:33.598Z,99239.00
2022-11-24T03:08:01.627Z,99240.00
2022-11-24T03:10:29.659Z,99243.00
2022-11-24T03:12:57.739Z,99248.00
2022-11-24T03:15:25.848Z,99239.00
2022-11-24T03:17:56.900Z,99243.00
2022-11-24T03:20:25.505Z,99246.00
2022-11-24T03:22:53.753Z,99247.00
2022-11-24T03:25:21.641Z,99254.00
2022-11-24T03:27:49.467Z,99256.00
2022-11-24T03:30:17.872Z,99254.00
2022-11-24T03:32:46.047Z,99262.00
2022-11-24T03:35:14.020Z,99257.00
2022-11-24T03:37:41.962Z,99258.00
2022-11-24T03:40:10.333Z,99258.00
2022-11-24T03:42:38.189Z,99258.00
2022-11-24T03:47:54.788Z,99270.00
2022-11-24T03:50:22.778Z,99273.00
2022-11-24T03:52:50.829Z,99268.00
2022-11-24T03:55:18.824Z,99271.00
2022-11-24T03:57:46.800Z,99279.00
2022-11-24T04:00:15.260Z,99276.00
2022-11-24T04:02:43.370Z,99281.00
2022-11-24T04:05:11.472Z,99284.00
2022-11-24T04:07:39.431Z,99285.00
2022-11-24T04:10:08.081Z,99280.00
2022-11-24T04:12:44.621Z,99286.00
2022-11-24T04:15:18.280Z,99290.00
2022-11-24T04:17:47.320Z,99293.00
2022-11-24T04:20:16.106Z,99292.00
2022-11-24T04:22:44.336Z,99285.00
2022-11-24T04:25:12.617Z,99292.00
2022-11-24T04:27:40.854Z,99286.00
2022-11-24T04:30:09.522Z,99297.00
2022-11-24T04:32:37.920Z,99300.00
2022-11-24T04:35:06.121Z,99307.00
2022-11-24T04:37:35.500Z,99310.00
2022-11-24T04:40:04.189Z,99314.00
2022-11-24T04:42:32.600Z,99318.00
2022-11-24T04:45:00.852Z,99311.00
2022-11-24T04:47:28.956Z,99319.00
2022-11-24T04:49:57.072Z,99320.00
2022-11-24T04:52:26.354Z,99321.00
2022-11-24T04:54:54.215Z,99327.00
2022-11-24T04:57:24.954Z,99322.00
2022-11-24T04:59:53.430Z,99332.00
2022-11-24T05:02:21.493Z,99344.00
2022-11-24T05:04:49.607Z,99341.00
2022-11-24T05:07:19.544Z,99340.00
2022-11-24T05:10:06.869Z,99344.00
2022-11-24T05:12:34.793Z,99348.00
2022-11-24T05:15:04.398Z,99344.00
2022-11-24T05:17:34.024Z,99345.00
2022-11-24T05:20:02.034Z,99340.00
2022-11-24T05:22:31.879Z,99351.00
2022-11-24T05:24:59.996Z,99358.00
2022-11-24T05:27:27.899Z,99361.00
2022-11-24T05:29:56.134Z,99360.00
2022-11-24T05:32:24.136Z,99365.00
2022-11-24T05:34:53.345Z,99364.00
2022-11-24T05:37:21.603Z,99367.00
2022-11-24T05:39:49.539Z,99364.00
2022-11-24T05:42:35.796Z,99363.00
2022-11-24T05:45:03.831Z,99373.00
2022-11-24T05:47:31.756Z,99376.00
2022-11-24T05:49:59.661Z,99370.00
2022-11-24T05:52:27.583Z,99374.00
2022-11-24T05:54:55.527Z,99366.00
2022-11-24T05:57:23.360Z,99386.00
2022-11-24T05:59:51.459Z,99375.00
2022-11-24T06:02:19.582Z,99377.00
2022-11-24T06:04:47.658Z,99372.00
2022-11-24T06:07:15.933Z,99381.00
2022-11-24T06:09:44.388Z,99382.00
2022-11-24T06:12:13.408Z,99386.00
2022-11-24T06:14:41.601Z,99384.00
2022-11-24T06:17:10.774Z,99391.00
2022-11-24T06:19:41.939Z,99392.00
2022-11-24T06:22:10.200Z,99402.00
2022-11-24T06:24:37.971Z,99394.00
2022-11-24T06:27:05.860Z,99405.00
2022-11-24T06:29:33.846Z,99410.00
2022-11-24T06:32:01.852Z,99394.00
2022-11-24T06:34:29.789Z,99412.00
2022-11-24T06:36:57.855Z,99411.00
2022-11-24T06:39:26.016Z,99409.00
2022-11-24T06:41:54.112Z,99408.00
2022-11-24T06:44:23.096Z,99412.00
2022-11-24T06:46:51.127Z,99411.00
2022-11-24T06:49:19.035Z,99417.00
2022-11-24T06:51:46.979Z,99417.00
2022-11-24T06:54:18.669Z,99421.00
2022-11-24T06:56:46.542Z,99424.00
2022-11-24T06:59:21.404Z,99428.00
2022-11-24T07:01:51.333Z,99431.00
2022-11-24T07:04:19.247Z,99428.00
2022-11-24T07:06:47.713Z,99435.00
2022-11-24T07:09:15.767Z,99435.00
2022-11-24T07:11:44.283Z,99439.00
2022-11-24T07:14:13.074Z,99441.00
2022-11-24T07:16:41.384Z,99430.00
2022-11-24T07:19:11.583Z,99437.00
2022-11-24T07:21:39.582Z,99442.00
2022-11-24T07:24:07.701Z,99449.00
2022-11-24T07:26:37.779Z,99444.00
2022-11-24T07:29:06.540Z,99451.00
2022-11-24T07:31:34.497Z,99452.00
2022-11-24T07:34:02.639Z,99462.00
2022-11-24T07:36:30.786Z,99459.00
2022-11-24T07:38:59.056Z,99460.00
2022-11-24T07:41:26.964Z,99464.00
2022-11-24T07:43:55.031Z,99469.00
2022-11-24T07:46:23.163Z,99470.00
2022-11-24T07:48:51.127Z,99479.00
2022-11-24T07:51:19.017Z,99474.00
2022-11-24T07:53:47.015Z,99476.00
2022-11-24T07:56:14.945Z,99478.00
2022-11-24T07:58:42.654Z,99480.00
2022-11-24T08:01:18.075Z,99494.00
2022-11-24T08:03:46.918Z,99494.00
2022-11-24T08:06:25.008Z,99503.00
2022-11-24T08:08:54.117Z,99501.00
2022-11-24T08:11:22.280Z,99502.00
2022-11-24T08:13:50.325Z,99495.00
2022-11-24T08:16:19.568Z,99505.00
2022-11-24T08:18:55.498Z,99505.00
2022-11-24T08:21:23.838Z,99511.00
2022-11-24T08:23:56.408Z,99508.00
2022-11-24T08:26:25.337Z,99520.00
2022-11-24T08:28:58.275Z,99516.00
2022-11-24T08:31:33.430Z,99507.00
2022-11-24T08:34:02.718Z,99516.00
2022-11-24T08:36:31.293Z,99526.00
2022-11-24T08:39:00.606Z,99525.00
2022-11-24T08:41:29.166Z,99532.00
2022-11-24T08:43:57.662Z,99531.00
2022-11-24T08:46:25.698Z,99534.00
2022-11-24T08:48:55.213Z,99530.00
2022-11-24T08:51:26.304Z,99531.00
2022-11-24T08:53:58.956Z,99539.00
2022-11-24T08:56:28.552Z,99534.00
2022-11-24T08:58:57.206Z,99544.00
2022-11-24T09:01:26.001Z,99546.00
2022-11-24T09:03:54.199Z,99546.00
2022-11-24T09:06:27.700Z,99550.00
2022-11-24T09:08:56.130Z,99563.00
2022-11-24T09:11:25.478Z,99555.00
2022-11-24T09:13:54.489Z,99562.00
2022-11-24T09:16:26.434Z,99567.00
2022-11-24T09:19:01.269Z,99567.00
2022-11-24T09:21:30.173Z,99572.00
2022-11-24T09:23:58.514Z,99569.00
2022-11-24T09:26:29.437Z,99568.00
2022-11-24T09:28:58.517Z,99572.00
2022-11-24T09:31:33.700Z,99578.00
2022-11-24T09:34:11.119Z,99579.00
2022-11-24T09:36:39.150Z,99578.00
2022-11-24T09:39:07.051Z,99573.00
2022-11-24T09:42:05.288Z,99578.00
2022-11-24T09:45:03.447Z,99580.00
2022-11-24T09:47:43.370Z,99575.00
2022-11-24T09:50:23.143Z,99572.00
2022-11-24T09:53:01.542Z,99578.00
2022-11-24T09:55:49.048Z,99575.00
2022-11-24T09:58:31.968Z,99573.00
2022-11-24T10:01:04.801Z,99579.00
2022-11-24T10:03:53.305Z,99581.00
2022-11-24T10:06:39.135Z,99587.00
2022-11-24T10:09:38.538Z,99591.00
2022-11-24T10:12:31.122Z,99599.00
2022-11-24T10:15:25.878Z,99606.00
2022-11-24T10:18:24.440Z,99605.00
2022-11-24T10:21:30.355Z,99608.00
2022-11-24T10:24:16.483Z,99616.00
2022-11-24T10:27:02.143Z,99612.00
2022-11-24T10:29:42.807Z,99607.00
2022-11-24T10:32:37.718Z,99611.00
2022-11-24T10:35:18.245Z,99612.00
2022-11-24T10:38:10.201Z,99613.00
2022-11-24T10:40:58.065Z,99612.00
2022-11-24T10:43:28.370Z,99614.00
2022-11-24T10:46:00.402Z,99626.00
2022-11-24T10:48:31.961Z,99619.00
2022-11-24T10:51:26.331Z,99618.00
2022-11-24T10:53:55.598Z,99621.00
2022-11-24T10:56:23.480Z,99618.00
2022-11-24T10:58:51.238Z,99617.00
2022-11-24T11:01:24.639Z,99621.00
2022-11-24T11:03:54.371Z,99621.00
2022-11-24T11:06:23.716Z,99618.00
2022-11-24T11:09:21.202Z,99619.00
2022-11-24T11:11:49.914Z,99618.00
2022-11-24T11:14:32.499Z,99623.00
2022-11-24T11:17:00.340Z,99618.00
2022-11-24T11:19:52.394Z,99620.00
2022-11-24T11:22:28.817Z,99623.00
2022-11-24T11:25:23.778Z,99630.00
2022-11-24T11:27:51.923Z,99631.00
2022-11-24T11:36:14.829Z,99635.00
2022-11-24T11:38:44.280Z,99640.00
2022-11-24T11:41:20.138Z,99633.00
2022-11-24T11:43:50.054Z,99642.00
2022-11-24T11:46:18.020Z,99639.00
2022-11-24T11:48:47.146Z,99645.00
2022-11-24T11:54:38.238Z,99642.00
2022-11-24T11:57:41.655Z,99642.00
2022-11-24T12:00:24.781Z,99647.00
2022-11-24T12:03:26.459Z,99657.00
2022-11-24T12:06:15.592Z,99654.00
2022-11-24T12:09:19.672Z,99659.00
2022-11-24T12:12:18.982Z,99660.00
2022-11-24T12:15:10.559Z,99659.00
2022-11-24T12:17:49.073Z,99664.00
2022-11-24T12:20:43.319Z,99662.00
2022-11-24T12:23:51.882Z,99665.00
2022-11-24T12:26:40.461Z,99669.00
2022-11-24T12:29:24.616Z,99667.00
2022-11-24T12:31:55.310Z,99659.00
2022-11-24T12:34:56.863Z,99669.00
2022-11-24T12:37:55.337Z,99665.00
2022-11-24T12:40:47.313Z,99663.00
2022-11-24T12:43:19.764Z,99674.00
2022-11-24T12:45:54.242Z,99678.00
2022-11-24T12:48:33.068Z,99678.00
2022-11-24T12:51:01.894Z,99685.00
2022-11-24T12:53:35.333Z,99683.00
2022-11-24T12:56:12.117Z,99682.00
2022-11-24T12:59:09.793Z,99689.00
2022-11-24T13:01:52.497Z,99699.00
2022-11-24T13:04:23.297Z,99691.00
2022-11-24T13:07:13.654Z,99698.00
2022-11-24T13:10:54.762Z,99692.00
2022-11-24T13:13:24.035Z,99702.00
2022-11-24T13:16:34.525Z,99699.00
2022-11-24T13:19:06.445Z,99701.00
2022-11-24T13:21:45.599Z,99703.00
2022-11-24T13:24:20.224Z,99709.00
2022-11-24T13:26:50.867Z,99707.00
2022-11-24T13:29:32.264Z,99705.00
2022-11-24T13:32:03.163Z,99715.00
2022-11-24T13:34:43.032Z,99717.00
2022-11-24T13:37:31.608Z,99719.00
2022-11-24T13:40:23.288Z,99720.00
2022-11-24T13:43:01.618Z,99726.00
2022-11-24T13:45:56.095Z,99726.00
2022-11-24T13:48:23.964Z,99727.00
2022-11-24T13:50:52.321Z,99728.00
2022-11-24T13:53:35.254Z,99731.00
2022-11-24T13:56:17.776Z,99735.00
2022-11-24T13:58:57.976Z,99741.00
2022-11-24T14:01:33.631Z,99737.00
2022-11-24T14:04:33.046Z,99741.00
2022-11-24T14:07:09.055Z,99755.00
2022-11-24T14:09:46.836Z,99753.00
2022-11-24T14:12:20.744Z,99754.00
2022-11-24T14:14:50.335Z,99761.00
2022-11-24T14:17:20.985Z,99757.00
2022-11-24T14:19:50.531Z,99761.00
2022-11-24T14:22:27.084Z,99768.00
2022-11-24T14:24:57.268Z,99769.00
2022-11-24T14:27:30.352Z,99771.00
2022-11-24T14:30:04.808Z,99769.00
2022-11-24T14:32:32.735Z,99776.00
2022-11-24T14:35:00.652Z,99767.00
2022-11-24T14:37:31.320Z,99779.00
2022-11-24T14:39:59.164Z,99779.00
2022-11-24T14:42:28.010Z,99778.00
2022-11-24T14:45:04.105Z,99788.00
2022-11-24T14:47:34.129Z,99788.00
2022-11-24T14:50:16.911Z,99801.00
2022-11-24T14:52:49.261Z,99806.00
2022-11-24T14:55:32.324Z,99818.00
2022-11-24T14:58:00.610Z,99818.00
2022-11-24T15:00:29.771Z,99825.00
2022-11-24T15:03:18.918Z,99828.00
2022-11-24T15:05:58.752Z,99824.00
2022-11-24T15:08:28.331Z,99828.00
2022-11-24T15:11:03.601Z,99828.00
2022-11-24T15:13:37.499Z,99831.00
2022-11-24T15:16:25.617Z,99826.00
2022-11-24T15:19:01.544Z,99832.00
2022-11-24T15:21:37.338Z,99836.00
2022-11-24T15:24:07.197Z,99835.00
2022-11-24T15:26:40.197Z,99839.00
2022-11-24T15:29:13.388Z,99836.00
2022-11-24T15:31:44.212Z,99844.00
2022-11-24T15:34:19.631Z,99841.00
2022-11-24T15:36:47.636Z,99846.00
2022-11-24T15:39:15.408Z,99850.00
2022-11-24T15:41:43.261Z,99851.00
2022-11-24T15:44:11.444Z,99851.00
2022-11-24T15:46:40.013Z,99851.00
2022-11-24T15:49:07.958Z,99848.00
2022-11-24T15:51:36.691Z,99846.00
2022-11-24T15:54:04.507Z,99850.00
2022-11-24T15:56:37.074Z,99848.00
2022-11-24T15:59:05.133Z,99844.00
2022-11-24T16:01:34.038Z,99843.00
2022-11-24T16:04:03.159Z,99842.00
2022-11-24T16:06:31.184Z,99845.00
2022-11-24T16:08:59.277Z,99855.00
2022-11-24T16:11:27.386Z,99851.00
2022-11-24T16:13:55.300Z,99856.00
2022-11-24T16:16:25.633Z,99849.00
2022-11-24T16:18:53.935Z,99844.00
2022-11-24T16:21:22.270Z,99848.00
2022-11-24T16:23:49.955Z,99851.00
2022-11-24T16:26:20.272Z,99850.00
2022-11-24T16:28:48.237Z,99854.00
2022-11-24T16:31:16.554Z,99861.00
2022-11-24T16:33:46.643Z,99862.00
2022-11-24T16:36:15.092Z,99862.00
2022-11-24T16:38:42.965Z,99867.00
2022-11-24T16:41:11.367Z,99867.00
2022-11-24T16:43:39.392Z,99877.00
2022-11-24T16:46:17.558Z,99877.00
2022-11-24T16:48:47.043Z,99882.00
2022-11-24T16:51:15.781Z,99888.00
2022-11-24T16:53:43.788Z,99897.00
2022-11-24T16:56:11.833Z,99893.00
2022-11-24T16:58:41.463Z,99888.00
2022-11-24T17:01:11.945Z,99885.00
2022-11-24T17:03:40.276Z,99890.00
2022-11-24T17:06:13.390Z,99892.00
2022-11-24T17:08:42.374Z,99904.00
2022-11-24T17:11:16.142Z,99907.00
2022-11-24T17:13:45.724Z,99903.00
2022-11-24T17:16:16.074Z,99910.00
2022-11-24T17:18:43.977Z,99906.00
2022-11-24T17:21:14.628Z,99906.00
2022-11-24T17:23:42.990Z,99908.00
2022-11-24T17:26:18.104Z,99907.00
2022-11-24T17:28:46.328Z,99911.00
2022-11-24T17:31:20.243Z,99915.00
2022-11-24T17:33:49.071Z,99915.00
2022-11-24T17:36:17.374Z,99917.00
2022-11-24T17:38:45.507Z,99908.00
2022-11-24T17:41:14.247Z,99913.00
2022-11-24T17:43:42.373Z,99921.00
2022-11-24T17:46:11.496Z,99917.00
2022-11-24T17:48:39.427Z,99920.00
2022-11-24T17:51:10.782Z,99926.00
2022-11-24T17:53:39.476Z,99929.00
2022-11-24T17:56:08.218Z,99930.00
2022-11-24T17:58:42.554Z,99928.00
2022-11-24T18:01:11.409Z,99933.00
2022-11-24T18:03:40.392Z,99934.00
2022-11-24T18:06:13.651Z,99939.00
2022-11-24T18:08:43.315Z,99935.00
2022-11-24T18:11:13.114Z,99939.00
2022-11-24T18:13:56.493Z,99943.00
2022-11-24T18:16:28.367Z,99944.00
2022-11-24T18:19:14.342Z,99954.00
2022-11-24T18:21:43.862Z,99959.00
2022-11-24T18:24:12.833Z,99950.00
2022-11-24T18:26:44.279Z,99957.00
2022-11-24T18:29:12.617Z,99955.00
2022-11-24T18:31:40.694Z,99953.00
2022-11-24T18:34:08.981Z,99961.00
2022-11-24T18:36:37.169Z,99950.00
2022-11-24T18:39:06.568Z,99956.00
2022-11-24T18:41:34.422Z,99958.00
2022-11-24T18:44:03.344Z,99960.00
2022-11-24T18:46:31.405Z,99964.00
2022-11-24T18:48:59.424Z,99962.00
2022-11-24T18:51:27.405Z,99968.00
2022-11-24T18:53:55.603Z,99964.00
2022-11-24T18:56:24.366Z,99968.00
2022-11-24T18:58:56.176Z,99968.00
2022-11-24T19:01:26.192Z,99952.00
2022-11-24T19:03:56.663Z,99963.00
2022-11-24T19:06:32.919Z,99961.00
2022-11-24T19:09:06.103Z,99963.00
2022-11-24T19:11:39.416Z,99967.00
2022-11-24T19:14:08.832Z,99962.00
2022-11-24T19:16:36.776Z,99968.00
2022-11-24T19:19:04.829Z,99967.00
2022-11-24T19:21:34.292Z,99972.00
2022-11-24T19:24:05.383Z,99974.00
2022-11-24T19:26:35.315Z,99973.00
2022-11-24T19:29:03.894Z,99975.00
2022-11-24T19:31:31.948Z,99976.00
2022-11-24T19:34:00.258Z,99977.00
2022-11-24T19:36:28.233Z,99981.00
2022-11-24T19:38:57.845Z,99988.00
2022-11-24T19:41:30.636Z,99985.00
2022-11-24T19:43:59.241Z,99986.00
2022-11-24T19:46:29.861Z,99992.00
2022-11-24T19:49:00.250Z,99994.00
2022-11-24T19:51:31.352Z,99991.00
2022-11-24T19:54:00.224Z,100001.00
2022-11-24T19:56:30.367Z,99994.00
2022-11-24T19:58:58.458Z,100007.00
2022-11-24T20:01:29.612Z,100006.00
2022-11-24T20:04:00.326Z,100008.00
2022-11-24T20:06:40.479Z,100018.00
2022-11-24T20:09:11.127Z,100005.00
2022-11-24T20:11:39.676Z,100011.00
2022-11-24T20:14:08.302Z,100008.00
2022-11-24T20:16:36.393Z,100000.00
2022-11-24T20:19:11.312Z,100009.00
2022-11-24T20:21:39.908Z,100001.00
2022-11-24T20:24:13.699Z,100007.00
2022-11-24T20:26:44.316Z,100002.00
2022-11-24T20:29:13.417Z,100004.00
2022-11-24T20:31:44.317Z,100011.00
2022-11-24T20:34:12.558Z,100012.00
2022-11-24T20:36:43.385Z,100015.00
2022-11-24T20:39:21.849Z,100013.00
2022-11-24T20:41:52.362Z,100016.00
2022-11-24T20:44:22.435Z,100012.00
2022-11-24T20:46:50.686Z,100024.00
2022-11-24T20:49:20.510Z,100020.00
2022-11-24T20:51:48.876Z,100020.00
2022-11-24T20:54:18.311Z,100022.00
2022-11-24T20:56:49.053Z,100021.00
2022-11-24T20:59:21.742Z,100022.00
2022-11-24T21:01:50.326Z,100026.00
2022-11-24T21:04:23.793Z,100023.00
2022-11-24T21:06:51.793Z,100026.00
2022-11-24T21:09:20.240Z,100023.00
2022-11-24T21:11:48.121Z,100022.00
2022-11-24T21:14:16.225Z,100025.00
2022-11-24T21:16:44.842Z,100034.00
2022-11-24T21:19:14.928Z,100029.00
2022-11-24T21:21:43.391Z,100030.00
2022-11-24T21:24:16.439Z,100038.00
2022-11-24T21:26:47.736Z,100038.00
2022-11-24T21:29:17.976Z,100038.00
2022-11-24T21:31:45.865Z,100034.00
2022-11-24T21:34:16.148Z,100038.00
2022-11-24T21:36:46.444Z,100046.00
2022-11-24T21:39:15.398Z,100054.00
2022-11-24T21:41:43.617Z,100052.00
2022-11-24T21:44:13.656Z,100048.00
2022-11-24T21:46:46.220Z,100048.00
2022-11-24T21:49:18.995Z,100051.00
2022-11-24T21:51:47.645Z,100054.00
2022-11-24T21:54:15.489Z,100055.00
2022-11-24T21:56:43.434Z,100056.00
2022-11-24T21:59:11.326Z,100056.00
2022-11-24T22:01:39.386Z,100058.00
2022-11-24T22:04:07.481Z,100057.00
2022-11-24T22:06:35.596Z,100059.00
2022-11-24T22:09:03.608Z,100061.00
2022-11-24T22:11:40.227Z,100055.00
2022-11-24T22:14:12.208Z,100066.00
2022-11-24T22:16:40.892Z,100074.00
2022-11-24T22:19:11.660Z,100075.00
2022-11-24T22:21:42.829Z,100087.00
2022-11-24T22:24:13.631Z,100078.00
2022-11-24T22:26:41.607Z,100075.00
2022-11-24T22:29:09.682Z,100074.00
2022-11-24T22:31:37.854Z,100077.00
2022-11-24T22:34:05.838Z,100081.00
2022-11-24T22:36:33.770Z,100074.00
2022-11-24T22:39:05.064Z,100073.00
2022-11-24T22:41:34.994Z,100079.00
2022-11-24T22:44:03.568Z,100076.00
2022-11-24T22:46:32.346Z,100070.00
2022-11-24T22:49:01.210Z,100073.00
2022-11-24T22:51:32.567Z,100070.00
2022-11-24T22:54:03.143Z,100077.00
2022-11-24T22:56:34.472Z,100069.00
2022-11-24T22:59:03.375Z,100075.00
2022-11-24T23:01:32.508Z,100077.00
2022-11-24T23:04:00.548Z,100066.00
2022-11-24T23:06:30.627Z,100078.00
2022-11-24T23:09:00.184Z,100070.00
2022-11-24T23:11:37.457Z,100068.00
2022-11-24T23:14:07.776Z,100068.00
2022-11-24T23:16:35.898Z,100069.00
2022-11-24T23:19:06.538Z,100075.00
2022-11-24T23:21:36.627Z,100059.00
2022-11-24T23:24:05.381Z,100063.00
2022-11-24T23:26:37.113Z,100062.00
2022-11-24T23:29:06.519Z,100057.00
2022-11-24T23:31:34.873Z,100063.00
2022-11-24T23:34:04.258Z,100061.00
2022-11-24T23:36:32.904Z,100049.00
2022-11-24T23:39:08.773Z,100061.00
2022-11-24T23:41:36.647Z,100060.00
2022-11-24T23:44:05.040Z,100055.00
2022-11-24T23:46:33.078Z,100059.00
2022-11-24T23:49:01.125Z,100059.00
2022-11-24T23:51:36.292Z,100054.00
2022-11-24T23:56:58.550Z,100057.00
2022-11-24T23:59:27.232Z,100055.00
